Time,TemperatureF,DewpointF,PressureIn,WindDirection,WindDirectionDegrees,WindSpeedMPH,WindSpeedGustMPH,Humidity,HourlyPrecipIn,Conditions,Clouds,dailyrainin,SoftwareType,DateUTC
2013-01-12 00:00:00,48.3,47.2,30.17,N/A,-737280,0.0,-999.0,96,0.00,,,0.01,Wunderground v.1.15,2013-01-12 05:00:00,
2013-01-12 00:05:00,48.3,47.2,30.17,N/A,-737280,0.0,-999.0,96,0.00,,,0.01,Wunderground v.1.15,2013-01-12 05:05:00,
2013-01-12 00:10:00,48.3,47.2,30.17,N/A,-737280,0.0,-999.0,96,0.00,,,0.01,Wunderground v.1.15,2013-01-12 05:10:00,
2013-01-12 00:15:00,48.3,47.2,30.17,N/A,-737280,0.0,-999.0,96,0.00,,,0.01,Wunderground v.1.15,2013-01-12 05:15:00,
2013-01-12 00:20:00,48.3,47.2,30.17,N/A,-737280,0.0,-999.0,96,0.00,,,0.01,Wunderground v.1.15,2013-01-12 05:20:00,
2013-01-12 00:25:00,48.3,47.2,30.17,N/A,-737280,0.0,-999.0,96,0.00,,,0.01,Wunderground v.1.15,2013-01-12 05:25:00,
2013-01-12 00:30:00,48.3,47.2,30.17,N/A,-737280,0.0,-999.0,96,0.00,,,0.01,Wunderground v.1.15,2013-01-12 05:30:00,
2013-01-12 00:35:00,48.3,47.2,30.17,N/A,-737280,0.0,-999.0,96,0.00,,,0.01,Wunderground v.1.15,2013-01-12 05:35:00,
2013-01-12 00:40:00,48.3,47.2,30.17,N/A,-737280,0.0,-999.0,96,0.00,,,0.01,Wunderground v.1.15,2013-01-12 05:40:00,
2013-01-12 00:45:00,48.4,47.3,30.17,NNW,338,0.0,-999.0,96,0.00,,,0.01,Wunderground v.1.15,2013-01-12 05:45:00,
2013-01-12 00:50:00,48.4,47.3,30.17,NNW,338,0.0,-999.0,96,0.00,,,0.01,Wunderground v.1.15,2013-01-12 05:50:00,
2013-01-12 00:55:00,48.4,47.3,30.17,NNW,338,0.0,-999.0,96,0.00,,,0.01,Wunderground v.1.15,2013-01-12 05:55:00,
2013-01-12 01:00:00,48.4,47.3,30.17,NNW,338,0.0,-999.0,96,0.00,,,0.01,Wunderground v.1.15,2013-01-12 06:00:00,
2013-01-12 01:05:00,48.4,47.3,30.17,NNW,338,0.0,-999.0,96,0.00,,,0.01,Wunderground v.1.15,2013-01-12 06:05:00,
2013-01-12 01:10:00,48.4,47.3,30.17,NNW,338,0.0,-999.0,96,0.00,,,0.01,Wunderground v.1.15,2013-01-12 06:10:00,
2013-01-12 01:15:00,48.5,47.4,30.17,NNW,338,0.0,-999.0,96,0.00,,,0.01,Wunderground v.1.15,2013-01-12 06:15:00,
2013-01-12 01:20:00,48.5,47.4,30.17,NNW,338,0.0,-999.0,96,0.00,,,0.01,Wunderground v.1.15,2013-01-12 06:20:00,
2013-01-12 01:25:00,48.5,47.4,30.17,NNW,338,0.0,-999.0,96,0.00,,,0.01,Wunderground v.1.15,2013-01-12 06:25:00,
2013-01-12 01:30:00,48.5,47.4,30.17,NNW,338,0.0,-999.0,96,0.00,,,0.01,Wunderground v.1.15,2013-01-12 06:30:00,
2013-01-12 01:35:00,48.5,47.4,30.17,NNW,338,0.0,-999.0,96,0.00,,,0.01,Wunderground v.1.15,2013-01-12 06:35:00,
2013-01-12 01:40:00,48.5,47.4,30.17,NNW,338,0.0,-999.0,96,0.00,,,0.01,Wunderground v.1.15,2013-01-12 06:40:00,
2013-01-12 01:45:00,48.8,48.0,30.16,N/A,-737280,0.0,-999.0,97,0.00,,,0.01,Wunderground v.1.15,2013-01-12 06:45:00,
2013-01-12 01:50:00,48.8,48.0,30.16,N/A,-737280,0.0,-999.0,97,0.00,,,0.01,Wunderground v.1.15,2013-01-12 06:50:00,
2013-01-12 01:55:00,48.8,48.0,30.16,N/A,-737280,0.0,-999.0,97,0.00,,,0.01,Wunderground v.1.15,2013-01-12 06:55:00,
2013-01-12 02:00:00,48.8,48.0,30.16,N/A,-737280,0.0,-999.0,97,0.00,,,0.01,Wunderground v.1.15,2013-01-12 07:00:00,
2013-01-12 02:05:00,48.8,48.0,30.16,N/A,-737280,0.0,-999.0,97,0.00,,,0.01,Wunderground v.1.15,2013-01-12 07:05:00,
2013-01-12 02:10:00,48.8,48.0,30.16,N/A,-737280,0.0,-999.0,97,0.00,,,0.01,Wunderground v.1.15,2013-01-12 07:10:00,
2013-01-12 02:15:00,49.3,48.5,30.16,N/A,-737280,0.0,-999.0,97,0.00,,,0.01,Wunderground v.1.15,2013-01-12 07:15:00,
2013-01-12 02:20:00,49.3,48.5,30.16,N/A,-737280,0.0,-999.0,97,0.00,,,0.01,Wunderground v.1.15,2013-01-12 07:20:00,
2013-01-12 02:25:00,49.3,48.5,30.16,N/A,-737280,0.0,-999.0,97,0.00,,,0.01,Wunderground v.1.15,2013-01-12 07:25:00,
2013-01-12 02:30:00,49.3,48.5,30.16,N/A,-737280,0.0,-999.0,97,0.00,,,0.01,Wunderground v.1.15,2013-01-12 07:30:00,
2013-01-12 02:35:00,49.3,48.5,30.16,N/A,-737280,0.0,-999.0,97,0.00,,,0.01,Wunderground v.1.15,2013-01-12 07:35:00,
2013-01-12 02:40:00,49.3,48.5,30.16,N/A,-737280,0.0,-999.0,97,0.00,,,0.01,Wunderground v.1.15,2013-01-12 07:40:00,
2013-01-12 02:45:00,49.7,48.9,30.16,N/A,-737280,0.0,-999.0,97,0.00,,,0.01,Wunderground v.1.15,2013-01-12 07:45:00,
2013-01-12 02:50:00,49.7,48.9,30.16,N/A,-737280,0.0,-999.0,97,0.00,,,0.01,Wunderground v.1.15,2013-01-12 07:50:00,
2013-01-12 02:55:00,49.7,48.9,30.16,N/A,-737280,0.0,-999.0,97,0.00,,,0.01,Wunderground v.1.15,2013-01-12 07:55:00,
2013-01-12 03:00:00,49.7,48.9,30.16,N/A,-737280,0.0,-999.0,97,0.00,,,0.01,Wunderground v.1.15,2013-01-12 08:00:00,
2013-01-12 03:05:00,49.7,48.9,30.16,N/A,-737280,0.0,-999.0,97,0.00,,,0.01,Wunderground v.1.15,2013-01-12 08:05:00,
2013-01-12 03:10:00,49.7,48.9,30.16,N/A,-737280,0.0,-999.0,97,0.00,,,0.01,Wunderground v.1.15,2013-01-12 08:10:00,
2013-01-12 03:15:00,49.8,49.0,30.16,N/A,-737280,0.0,-999.0,97,0.00,,,0.01,Wunderground v.1.15,2013-01-12 08:15:00,
2013-01-12 03:20:00,49.8,49.0,30.16,N/A,-737280,0.0,-999.0,97,0.00,,,0.01,Wunderground v.1.15,2013-01-12 08:20:00,
2013-01-12 03:25:00,49.8,49.0,30.16,N/A,-737280,0.0,-999.0,97,0.00,,,0.01,Wunderground v.1.15,2013-01-12 08:25:00,
2013-01-12 03:30:00,49.8,49.0,30.16,N/A,-737280,0.0,-999.0,97,0.00,,,0.01,Wunderground v.1.15,2013-01-12 08:30:00,
2013-01-12 03:35:00,49.8,49.0,30.16,N/A,-737280,0.0,-999.0,97,0.00,,,0.01,Wunderground v.1.15,2013-01-12 08:35:00,
2013-01-12 03:40:00,49.8,49.0,30.16,N/A,-737280,0.0,-999.0,97,0.00,,,0.01,Wunderground v.1.15,2013-01-12 08:40:00,
2013-01-12 03:45:00,50.1,49.3,30.14,N/A,-737280,0.0,-999.0,97,0.00,,,0.01,Wunderground v.1.15,2013-01-12 08:45:00,
2013-01-12 03:50:00,50.1,49.3,30.14,N/A,-737280,0.0,-999.0,97,0.00,,,0.01,Wunderground v.1.15,2013-01-12 08:50:00,
2013-01-12 03:55:00,50.1,49.3,30.14,N/A,-737280,0.0,-999.0,97,0.00,,,0.01,Wunderground v.1.15,2013-01-12 08:55:00,
2013-01-12 04:00:00,50.1,49.3,30.14,N/A,-737280,0.0,-999.0,97,0.00,,,0.01,Wunderground v.1.15,2013-01-12 09:00:00,
2013-01-12 04:05:00,50.1,49.3,30.14,N/A,-737280,0.0,-999.0,97,0.00,,,0.01,Wunderground v.1.15,2013-01-12 09:05:00,
2013-01-12 04:10:00,50.1,49.3,30.14,N/A,-737280,0.0,-999.0,97,0.00,,,0.01,Wunderground v.1.15,2013-01-12 09:10:00,
2013-01-12 04:15:00,50.3,49.5,30.13,N/A,-737280,0.0,-999.0,97,0.00,,,0.01,Wunderground v.1.15,2013-01-12 09:15:00,
2013-01-12 04:20:00,50.3,49.5,30.13,N/A,-737280,0.0,-999.0,97,0.00,,,0.01,Wunderground v.1.15,2013-01-12 09:20:00,
2013-01-12 04:25:00,50.3,49.5,30.13,N/A,-737280,0.0,-999.0,97,0.00,,,0.01,Wunderground v.1.15,2013-01-12 09:25:00,
2013-01-12 04:30:00,50.3,49.5,30.13,N/A,-737280,0.0,-999.0,97,0.00,,,0.01,Wunderground v.1.15,2013-01-12 09:30:00,
2013-01-12 04:35:00,50.3,49.5,30.13,N/A,-737280,0.0,-999.0,97,0.00,,,0.01,Wunderground v.1.15,2013-01-12 09:35:00,
2013-01-12 04:40:00,50.3,49.5,30.13,N/A,-737280,0.0,-999.0,97,0.00,,,0.01,Wunderground v.1.15,2013-01-12 09:40:00,
2013-01-12 04:45:00,50.9,50.1,30.13,N/A,-737280,0.0,-999.0,97,0.00,,,0.01,Wunderground v.1.15,2013-01-12 09:45:00,
2013-01-12 04:50:00,50.9,50.1,30.13,N/A,-737280,0.0,-999.0,97,0.00,,,0.01,Wunderground v.1.15,2013-01-12 09:50:00,
2013-01-12 04:55:00,50.9,50.1,30.13,N/A,-737280,0.0,-999.0,97,0.00,,,0.01,Wunderground v.1.15,2013-01-12 09:55:00,
2013-01-12 05:00:00,50.9,50.1,30.13,N/A,-737280,0.0,-999.0,97,0.00,,,0.01,Wunderground v.1.15,2013-01-12 10:00:00,
2013-01-12 05:05:00,50.9,50.1,30.13,N/A,-737280,0.0,-999.0,97,0.00,,,0.01,Wunderground v.1.15,2013-01-12 10:05:00,
2013-01-12 05:10:00,50.9,50.1,30.13,N/A,-737280,0.0,-999.0,97,0.00,,,0.01,Wunderground v.1.15,2013-01-12 10:10:00,
2013-01-12 05:15:00,51.2,50.4,30.13,N/A,-737280,0.0,-999.0,97,0.00,,,0.01,Wunderground v.1.15,2013-01-12 10:15:00,
2013-01-12 05:20:00,51.2,50.4,30.13,N/A,-737280,0.0,-999.0,97,0.00,,,0.01,Wunderground v.1.15,2013-01-12 10:20:00,
2013-01-12 05:25:00,51.2,50.4,30.13,N/A,-737280,0.0,-999.0,97,0.00,,,0.01,Wunderground v.1.15,2013-01-12 10:25:00,
2013-01-12 05:30:00,51.2,50.4,30.13,N/A,-737280,0.0,-999.0,97,0.00,,,0.01,Wunderground v.1.15,2013-01-12 10:30:00,
2013-01-12 05:35:00,51.2,50.4,30.13,N/A,-737280,0.0,-999.0,97,0.00,,,0.01,Wunderground v.1.15,2013-01-12 10:35:00,
2013-01-12 05:40:00,51.2,50.4,30.13,N/A,-737280,0.0,-999.0,97,0.00,,,0.01,Wunderground v.1.15,2013-01-12 10:40:00,
2013-01-12 05:45:00,52.3,51.5,30.13,WSW,248,0.0,-999.0,97,0.00,,,0.01,Wunderground v.1.15,2013-01-12 10:45:00,
2013-01-12 05:50:00,52.3,51.5,30.13,WSW,248,0.0,-999.0,97,0.00,,,0.01,Wunderground v.1.15,2013-01-12 10:50:00,
2013-01-12 05:55:00,52.3,51.5,30.13,WSW,248,0.0,-999.0,97,0.00,,,0.01,Wunderground v.1.15,2013-01-12 10:55:00,
2013-01-12 06:00:00,52.3,51.5,30.13,WSW,248,0.0,-999.0,97,0.00,,,0.01,Wunderground v.1.15,2013-01-12 11:00:00,
2013-01-12 06:05:00,52.3,51.5,30.13,WSW,248,0.0,-999.0,97,0.00,,,0.01,Wunderground v.1.15,2013-01-12 11:05:00,
2013-01-12 06:10:00,52.3,51.5,30.13,WSW,248,0.0,-999.0,97,0.00,,,0.01,Wunderground v.1.15,2013-01-12 11:10:00,
2013-01-12 06:15:00,52.8,52.0,30.14,WSW,248,0.0,-999.0,97,0.00,,,0.01,Wunderground v.1.15,2013-01-12 11:15:00,
2013-01-12 06:20:00,52.8,52.0,30.14,WSW,248,0.0,-999.0,97,0.00,,,0.01,Wunderground v.1.15,2013-01-12 11:20:00,
2013-01-12 06:25:00,52.8,52.0,30.14,WSW,248,0.0,-999.0,97,0.00,,,0.01,Wunderground v.1.15,2013-01-12 11:25:00,
2013-01-12 06:30:00,52.8,52.0,30.14,WSW,248,0.0,-999.0,97,0.00,,,0.01,Wunderground v.1.15,2013-01-12 11:30:00,
2013-01-12 06:35:00,52.8,52.0,30.14,WSW,248,0.0,-999.0,97,0.00,,,0.01,Wunderground v.1.15,2013-01-12 11:35:00,
2013-01-12 06:40:00,52.8,52.0,30.14,WSW,248,0.0,-999.0,97,0.00,,,0.01,Wunderground v.1.15,2013-01-12 11:40:00,
2013-01-12 06:45:00,53.1,52.3,30.15,SSW,203,0.0,-999.0,97,0.00,,,0.01,Wunderground v.1.15,2013-01-12 11:45:00,
2013-01-12 06:50:00,53.1,52.3,30.15,SSW,203,0.0,-999.0,97,0.00,,,0.01,Wunderground v.1.15,2013-01-12 11:50:00,
2013-01-12 06:55:00,53.1,52.3,30.15,SSW,203,0.0,-999.0,97,0.00,,,0.01,Wunderground v.1.15,2013-01-12 11:55:00,
2013-01-12 07:00:00,53.1,52.3,30.15,SSW,203,0.0,-999.0,97,0.00,,,0.01,Wunderground v.1.15,2013-01-12 12:00:00,
2013-01-12 07:05:00,53.1,52.3,30.15,SSW,203,0.0,-999.0,97,0.00,,,0.01,Wunderground v.1.15,2013-01-12 12:05:00,
2013-01-12 07:10:00,53.1,52.3,30.15,SSW,203,0.0,-999.0,97,0.00,,,0.01,Wunderground v.1.15,2013-01-12 12:10:00,
2013-01-12 07:15:00,53.0,52.2,30.16,SSW,203,0.0,-999.0,97,0.00,,,0.01,Wunderground v.1.15,2013-01-12 12:15:00,
2013-01-12 07:20:00,53.0,52.2,30.16,SSW,203,0.0,-999.0,97,0.00,,,0.01,Wunderground v.1.15,2013-01-12 12:20:00,
2013-01-12 07:25:00,53.0,52.2,30.16,SSW,203,0.0,-999.0,97,0.00,,,0.01,Wunderground v.1.15,2013-01-12 12:25:00,
2013-01-12 07:30:00,53.0,52.2,30.16,SSW,203,0.0,-999.0,97,0.00,,,0.01,Wunderground v.1.15,2013-01-12 12:30:00,
2013-01-12 07:35:00,53.0,52.2,30.16,SSW,203,0.0,-999.0,97,0.00,,,0.01,Wunderground v.1.15,2013-01-12 12:35:00,
2013-01-12 07:40:00,53.0,52.2,30.16,SSW,203,0.0,-999.0,97,0.00,,,0.01,Wunderground v.1.15,2013-01-12 12:40:00,
2013-01-12 07:45:00,53.0,52.2,30.16,SSW,203,0.0,-999.0,97,0.01,,,0.01,Wunderground v.1.15,2013-01-12 12:45:00,
2013-01-12 07:50:00,53.0,52.2,30.16,SSW,203,0.0,-999.0,97,0.01,,,0.01,Wunderground v.1.15,2013-01-12 12:50:00,
2013-01-12 07:55:00,53.0,52.2,30.16,SSW,203,0.0,-999.0,97,0.01,,,0.01,Wunderground v.1.15,2013-01-12 12:55:00,
2013-01-12 08:00:00,53.0,52.2,30.16,SSW,203,0.0,-999.0,97,0.01,,,0.01,Wunderground v.1.15,2013-01-12 13:00:00,
2013-01-12 08:05:00,53.0,52.2,30.16,SSW,203,0.0,-999.0,97,0.01,,,0.01,Wunderground v.1.15,2013-01-12 13:05:00,
2013-01-12 08:10:00,53.0,52.2,30.16,SSW,203,0.0,-999.0,97,0.01,,,0.01,Wunderground v.1.15,2013-01-12 13:10:00,
2013-01-12 08:15:00,53.5,52.7,30.17,SSW,203,0.0,-999.0,97,0.01,,,0.01,Wunderground v.1.15,2013-01-12 13:15:00,
2013-01-12 08:20:00,53.5,52.7,30.17,SSW,203,0.0,-999.0,97,0.01,,,0.01,Wunderground v.1.15,2013-01-12 13:20:00,
2013-01-12 08:25:00,53.5,52.7,30.17,SSW,203,0.0,-999.0,97,0.01,,,0.01,Wunderground v.1.15,2013-01-12 13:25:00,
2013-01-12 08:30:00,53.5,52.7,30.17,SSW,203,0.0,-999.0,97,0.01,,,0.01,Wunderground v.1.15,2013-01-12 13:30:00,
2013-01-12 08:35:00,53.5,52.7,30.17,SSW,203,0.0,-999.0,97,0.01,,,0.01,Wunderground v.1.15,2013-01-12 13:35:00,
2013-01-12 08:40:00,53.5,52.7,30.17,SSW,203,0.0,-999.0,97,0.01,,,0.01,Wunderground v.1.15,2013-01-12 13:40:00,
2013-01-12 08:45:00,54.1,53.3,30.17,SSW,203,0.0,-999.0,97,0.00,,,0.01,Wunderground v.1.15,2013-01-12 13:45:00,
2013-01-12 08:50:00,54.1,53.3,30.17,SSW,203,0.0,-999.0,97,0.00,,,0.01,Wunderground v.1.15,2013-01-12 13:50:00,
2013-01-12 08:55:00,54.1,53.3,30.17,SSW,203,0.0,-999.0,97,0.00,,,0.01,Wunderground v.1.15,2013-01-12 13:55:00,
2013-01-12 09:00:00,54.1,53.3,30.17,SSW,203,0.0,-999.0,97,0.00,,,0.01,Wunderground v.1.15,2013-01-12 14:00:00,
2013-01-12 09:55:00,55.6,54.8,30.17,SSW,211,0.0,0.0,97,0.00,,,0.01,Wunderground v.1.15,2013-01-12 14:55:00,
2013-01-12 10:00:00,55.8,55.0,30.17,SSW,211,0.0,0.0,97,0.00,,,0.01,Wunderground v.1.15,2013-01-12 15:00:00,
2013-01-12 10:05:00,55.9,55.3,30.17,SW,226,0.0,2.0,98,0.00,,,0.01,Wunderground v.1.15,2013-01-12 15:05:00,
2013-01-12 10:10:00,56.0,55.4,30.17,SW,226,0.0,2.0,98,0.00,,,0.01,Wunderground v.1.15,2013-01-12 15:10:00,
2013-01-12 10:15:00,56.1,55.3,30.17,SW,226,0.0,2.0,97,0.00,,,0.01,Wunderground v.1.15,2013-01-12 15:15:00,
2013-01-12 10:20:00,56.3,55.5,30.17,SW,226,0.0,2.0,97,0.00,,,0.01,Wunderground v.1.15,2013-01-12 15:20:00,
2013-01-12 10:25:00,56.4,55.8,30.17,SW,226,0.0,2.0,98,0.00,,,0.01,Wunderground v.1.15,2013-01-12 15:25:00,
2013-01-12 10:30:00,56.5,55.9,30.17,SW,226,0.0,2.0,98,0.00,,,0.01,Wunderground v.1.15,2013-01-12 15:30:00,
2013-01-12 10:35:00,56.5,55.7,30.17,SW,226,0.0,2.0,97,0.00,,,0.01,Wunderground v.1.15,2013-01-12 15:35:00,
2013-01-12 10:40:00,56.7,55.9,30.17,SW,226,0.0,2.0,97,0.00,,,0.01,Wunderground v.1.15,2013-01-12 15:40:00,
2013-01-12 10:45:00,56.6,55.8,30.17,SW,226,0.0,2.0,97,0.00,,,0.01,Wunderground v.1.15,2013-01-12 15:45:00,
2013-01-12 10:50:00,56.6,55.8,30.17,SW,226,0.0,2.0,97,0.00,,,0.01,Wunderground v.1.15,2013-01-12 15:50:00,
2013-01-12 10:55:00,56.6,55.8,30.17,SW,226,0.0,2.0,97,0.00,,,0.01,Wunderground v.1.15,2013-01-12 15:55:00,
2013-01-12 11:00:00,56.7,55.9,30.17,SW,226,0.0,2.0,97,0.00,,,0.01,Wunderground v.1.15,2013-01-12 16:00:00,
2013-01-12 11:05:00,56.8,56.0,30.17,SW,226,0.0,2.0,97,0.00,,,0.01,Wunderground v.1.15,2013-01-12 16:05:00,
2013-01-12 11:10:00,56.9,56.1,30.17,SW,226,0.0,2.0,97,0.00,,,0.01,Wunderground v.1.15,2013-01-12 16:10:00,
2013-01-12 11:15:00,57.0,56.4,30.17,SW,226,0.0,2.0,98,0.00,,,0.01,Wunderground v.1.15,2013-01-12 16:15:00,
2013-01-12 11:20:00,57.0,56.2,30.17,SW,226,0.0,2.0,97,0.00,,,0.01,Wunderground v.1.15,2013-01-12 16:20:00,
2013-01-12 11:25:00,57.3,56.5,30.16,SW,226,0.0,2.0,97,0.00,,,0.01,Wunderground v.1.15,2013-01-12 16:25:00,
2013-01-12 11:30:00,57.7,57.1,30.16,SW,226,0.0,2.0,98,0.00,,,0.01,Wunderground v.1.15,2013-01-12 16:30:00,
2013-01-12 11:35:00,58.2,57.6,30.16,SW,226,0.0,2.0,98,0.00,,,0.01,Wunderground v.1.15,2013-01-12 16:35:00,
2013-01-12 11:40:00,58.7,58.1,30.16,SW,226,0.0,2.0,98,0.00,,,0.01,Wunderground v.1.15,2013-01-12 16:40:00,
2013-01-12 11:45:00,58.9,58.3,30.15,SW,226,0.0,2.0,98,0.00,,,0.01,Wunderground v.1.15,2013-01-12 16:45:00,
2013-01-12 11:50:00,58.9,58.3,30.15,SW,226,0.0,2.0,98,0.00,,,0.01,Wunderground v.1.15,2013-01-12 16:50:00,
2013-01-12 11:55:00,59.0,58.4,30.15,SW,226,0.0,2.0,98,0.00,,,0.01,Wunderground v.1.15,2013-01-12 16:55:00,
2013-01-12 12:00:00,59.4,58.8,30.15,SW,226,0.0,2.0,98,0.00,,,0.01,Wunderground v.1.15,2013-01-12 17:00:00,
2013-01-12 12:05:00,59.4,58.5,30.14,WSW,237,0.0,2.0,97,0.00,,,0.01,Wunderground v.1.15,2013-01-12 17:05:00,
2013-01-12 12:10:00,59.3,58.4,30.14,WSW,237,0.0,2.0,97,0.00,,,0.01,Wunderground v.1.15,2013-01-12 17:10:00,
2013-01-12 12:15:00,59.2,58.3,30.14,WSW,237,0.0,2.0,97,0.00,,,0.01,Wunderground v.1.15,2013-01-12 17:15:00,
2013-01-12 12:20:00,59.4,58.5,30.14,WSW,237,0.0,2.0,97,0.00,,,0.01,Wunderground v.1.15,2013-01-12 17:20:00,
2013-01-12 12:25:00,59.6,58.7,30.14,WSW,237,0.0,2.0,97,0.00,,,0.01,Wunderground v.1.15,2013-01-12 17:25:00,
2013-01-12 12:30:00,59.5,58.6,30.14,SW,223,0.0,2.0,97,0.00,,,0.01,Wunderground v.1.15,2013-01-12 17:30:00,
2013-01-12 12:35:00,59.5,58.6,30.14,SW,223,0.0,2.0,97,0.00,,,0.01,Wunderground v.1.15,2013-01-12 17:35:00,
2013-01-12 12:40:00,59.9,59.0,30.14,SW,223,0.0,2.0,97,0.00,,,0.01,Wunderground v.1.15,2013-01-12 17:40:00,
2013-01-12 12:45:00,60.0,59.1,30.13,SW,223,0.0,2.0,97,0.00,,,0.01,Wunderground v.1.15,2013-01-12 17:45:00,
2013-01-12 12:50:00,60.1,59.2,30.13,SW,223,0.0,2.0,97,0.00,,,0.01,Wunderground v.1.15,2013-01-12 17:50:00,
2013-01-12 12:55:00,60.4,59.5,30.13,SSE,167,0.0,2.0,97,0.00,,,0.01,Wunderground v.1.15,2013-01-12 17:55:00,
2013-01-12 13:00:00,60.7,59.8,30.13,SSE,150,0.0,2.0,97,0.00,,,0.01,Wunderground v.1.15,2013-01-12 18:00:00,
2013-01-12 13:10:00,61.2,60.1,30.13,SSE,156,0.0,2.0,96,0.00,,,0.01,Wunderground v.1.15,2013-01-12 18:10:00,
2013-01-12 13:15:00,61.3,60.2,30.13,SSE,156,0.0,2.0,96,0.00,,,0.01,Wunderground v.1.15,2013-01-12 18:15:00,
2013-01-12 13:20:00,61.6,60.4,30.13,SSE,155,0.0,2.0,96,0.00,,,0.01,Wunderground v.1.15,2013-01-12 18:20:00,
2013-01-12 13:25:00,61.9,60.7,30.13,SE,146,0.0,2.0,96,0.00,,,0.01,Wunderground v.1.15,2013-01-12 18:25:00,
2013-01-12 13:30:00,62.2,60.8,30.13,SE,146,0.0,2.0,95,0.00,,,0.01,Wunderground v.1.15,2013-01-12 18:30:00,
2013-01-12 13:35:00,62.5,61.3,30.13,SE,146,0.0,2.0,96,0.00,,,0.01,Wunderground v.1.15,2013-01-12 18:35:00,
2013-01-12 13:40:00,62.9,61.4,30.13,SE,146,0.0,2.0,95,0.00,,,0.01,Wunderground v.1.15,2013-01-12 18:40:00,
2013-01-12 13:45:00,63.3,61.8,30.12,SE,146,0.0,2.0,95,0.00,,,0.01,Wunderground v.1.15,2013-01-12 18:45:00,
2013-01-12 13:50:00,63.6,62.1,30.12,SE,146,0.0,2.0,95,0.00,,,0.01,Wunderground v.1.15,2013-01-12 18:50:00,
2013-01-12 13:55:00,63.8,62.0,30.12,SE,146,0.0,2.0,94,0.00,,,0.01,Wunderground v.1.15,2013-01-12 18:55:00,
2013-01-12 14:00:00,63.9,62.1,30.12,SE,145,0.0,2.0,94,0.00,,,0.01,Wunderground v.1.15,2013-01-12 19:00:00,
2013-01-12 14:05:00,63.9,62.1,30.12,SE,145,0.0,2.0,94,0.00,,,0.01,Wunderground v.1.15,2013-01-12 19:05:00,
2013-01-12 14:10:00,64.0,61.9,30.12,SE,145,0.0,2.0,93,0.00,,,0.01,Wunderground v.1.15,2013-01-12 19:10:00,
2013-01-12 14:15:00,64.0,61.9,30.12,SE,145,0.0,2.0,93,0.00,,,0.01,Wunderground v.1.15,2013-01-12 19:15:00,
2013-01-12 14:20:00,63.8,61.7,30.12,SE,146,0.0,2.0,93,0.00,,,0.01,Wunderground v.1.15,2013-01-12 19:20:00,
2013-01-12 14:25:00,63.6,61.2,30.12,SSE,150,0.0,2.0,92,0.00,,,0.01,Wunderground v.1.15,2013-01-12 19:25:00,
2013-01-12 14:30:00,63.6,61.5,30.12,SSE,150,0.0,2.0,93,0.00,,,0.01,Wunderground v.1.15,2013-01-12 19:30:00,
2013-01-12 14:35:00,63.8,61.7,30.12,SSE,150,0.0,2.0,93,0.00,,,0.01,Wunderground v.1.15,2013-01-12 19:35:00,
2013-01-12 14:40:00,64.0,61.9,30.12,SSE,150,0.0,2.0,93,0.00,,,0.01,Wunderground v.1.15,2013-01-12 19:40:00,
2013-01-12 14:45:00,64.2,61.8,30.12,SSE,150,0.0,2.0,92,0.00,,,0.01,Wunderground v.1.15,2013-01-12 19:45:00,
2013-01-12 14:50:00,64.3,61.9,30.12,SSE,150,0.0,2.0,92,0.00,,,0.01,Wunderground v.1.15,2013-01-12 19:50:00,
2013-01-12 14:55:00,64.3,62.2,30.12,SSE,150,0.0,2.0,93,0.00,,,0.01,Wunderground v.1.15,2013-01-12 19:55:00,
2013-01-12 15:00:00,64.5,62.4,30.12,SSE,150,0.0,2.0,93,0.00,,,0.01,Wunderground v.1.15,2013-01-12 20:00:00,
2013-01-12 15:05:00,64.8,62.7,30.12,SSE,150,0.0,2.0,93,0.00,,,0.01,Wunderground v.1.15,2013-01-12 20:05:00,
2013-01-12 15:10:00,65.0,62.6,30.12,SSE,150,0.0,2.0,92,0.00,,,0.01,Wunderground v.1.15,2013-01-12 20:10:00,
2013-01-12 15:15:00,65.2,62.8,30.12,SSE,150,0.0,2.0,92,0.00,,,0.01,Wunderground v.1.15,2013-01-12 20:15:00,
2013-01-12 15:20:00,65.3,62.6,30.12,SSE,148,0.0,2.0,91,0.00,,,0.01,Wunderground v.1.15,2013-01-12 20:20:00,
2013-01-12 15:25:00,65.4,63.0,30.12,SSE,148,0.0,2.0,92,0.00,,,0.01,Wunderground v.1.15,2013-01-12 20:25:00,
2013-01-12 15:30:00,65.5,63.1,30.11,SSE,148,0.0,2.0,92,0.00,,,0.01,Wunderground v.1.15,2013-01-12 20:30:00,
2013-01-12 15:35:00,65.7,63.3,30.11,SSE,148,0.0,2.0,92,0.00,,,0.01,Wunderground v.1.15,2013-01-12 20:35:00,
2013-01-12 15:40:00,65.9,63.2,30.11,SSE,147,0.0,2.0,91,0.00,,,0.01,Wunderground v.1.15,2013-01-12 20:40:00,
2013-01-12 15:45:00,66.2,63.5,30.11,SE,146,0.0,2.0,91,0.00,,,0.01,Wunderground v.1.15,2013-01-12 20:45:00,
2013-01-12 15:50:00,66.4,63.7,30.11,SE,146,0.0,2.0,91,0.00,,,0.01,Wunderground v.1.15,2013-01-12 20:50:00,
2013-01-12 15:55:00,66.6,63.9,30.11,SE,146,0.0,2.0,91,0.00,,,0.01,Wunderground v.1.15,2013-01-12 20:55:00,
2013-01-12 16:00:00,66.7,63.7,30.11,SE,146,0.0,2.0,90,0.00,,,0.01,Wunderground v.1.15,2013-01-12 21:00:00,
2013-01-12 16:05:00,66.7,63.7,30.11,SE,146,0.0,2.0,90,0.00,,,0.01,Wunderground v.1.15,2013-01-12 21:05:00,
2013-01-12 16:10:00,66.7,63.7,30.11,SE,146,0.0,2.0,90,0.00,,,0.01,Wunderground v.1.15,2013-01-12 21:10:00,
2013-01-12 16:15:00,66.8,63.8,30.11,SE,146,0.0,2.0,90,0.00,,,0.01,Wunderground v.1.15,2013-01-12 21:15:00,
2013-01-12 16:20:00,66.8,63.8,30.11,SE,146,0.0,2.0,90,0.00,,,0.01,Wunderground v.1.15,2013-01-12 21:20:00,
2013-01-12 16:25:00,66.7,63.7,30.11,SE,146,0.0,2.0,90,0.00,,,0.01,Wunderground v.1.15,2013-01-12 21:25:00,
2013-01-12 16:30:00,66.6,63.6,30.10,SE,146,0.0,2.0,90,0.00,,,0.01,Wunderground v.1.15,2013-01-12 21:30:00,
2013-01-12 16:35:00,66.5,63.8,30.11,SE,146,0.0,2.0,91,0.00,,,0.01,Wunderground v.1.15,2013-01-12 21:35:00,
2013-01-12 16:40:00,66.3,63.6,30.11,SE,146,0.0,2.0,91,0.00,,,0.01,Wunderground v.1.15,2013-01-12 21:40:00,
2013-01-12 16:45:00,66.1,63.4,30.10,SE,146,0.0,2.0,91,0.00,,,0.01,Wunderground v.1.15,2013-01-12 21:45:00,
2013-01-12 16:50:00,65.8,63.1,30.10,SE,146,0.0,2.0,91,0.00,,,0.01,Wunderground v.1.15,2013-01-12 21:50:00,
2013-01-12 17:00:00,65.3,62.6,30.10,SE,146,0.0,2.0,91,0.00,,,0.01,Wunderground v.1.15,2013-01-12 22:00:00,
2013-01-12 17:05:00,65.1,62.7,30.10,SE,146,0.0,2.0,92,0.00,,,0.01,Wunderground v.1.15,2013-01-12 22:05:00,
2013-01-12 17:10:00,64.9,62.5,30.10,SE,146,0.0,0.0,92,0.00,,,0.01,Wunderground v.1.15,2013-01-12 22:10:00,
2013-01-12 17:15:00,64.6,61.9,30.10,SE,146,0.0,0.0,91,0.00,,,0.01,Wunderground v.1.15,2013-01-12 22:15:00,
2013-01-12 17:20:00,64.1,61.4,30.10,SE,146,0.0,0.0,91,0.00,,,0.01,Wunderground v.1.15,2013-01-12 22:20:00,
2013-01-12 17:25:00,63.4,60.7,30.10,SE,146,0.0,0.0,91,0.00,,,0.01,Wunderground v.1.15,2013-01-12 22:25:00,
2013-01-12 17:30:00,63.1,60.7,30.10,SE,146,0.0,0.0,92,0.00,,,0.01,Wunderground v.1.15,2013-01-12 22:30:00,
2013-01-12 17:35:00,62.7,60.3,30.10,SE,146,0.0,0.0,92,0.00,,,0.01,Wunderground v.1.15,2013-01-12 22:35:00,
2013-01-12 17:40:00,62.5,60.1,30.10,SE,146,0.0,0.0,92,0.00,,,0.01,Wunderground v.1.15,2013-01-12 22:40:00,
2013-01-12 17:45:00,62.4,60.3,30.10,SE,146,0.0,0.0,93,0.00,,,0.01,Wunderground v.1.15,2013-01-12 22:45:00,
2013-01-12 17:50:00,62.2,60.2,30.10,SE,146,0.0,0.0,93,0.00,,,0.01,Wunderground v.1.15,2013-01-12 22:50:00,
2013-01-12 17:55:00,62.1,60.4,30.10,SE,146,0.0,0.0,94,0.00,,,0.01,Wunderground v.1.15,2013-01-12 22:55:00,
2013-01-12 18:00:00,62.0,60.3,30.10,SE,146,0.0,0.0,94,0.00,,,0.01,Wunderground v.1.15,2013-01-12 23:00:00,
2013-01-12 18:05:00,61.9,60.2,30.10,SE,146,0.0,0.0,94,0.00,,,0.01,Wunderground v.1.15,2013-01-12 23:05:00,
2013-01-12 18:10:00,61.8,60.1,30.10,SE,146,0.0,0.0,94,0.00,,,0.01,Wunderground v.1.15,2013-01-12 23:10:00,
2013-01-12 18:15:00,61.8,60.1,30.10,SE,146,0.0,0.0,94,0.00,,,0.01,Wunderground v.1.15,2013-01-12 23:15:00,
2013-01-12 18:20:00,61.6,59.9,30.10,SE,146,0.0,0.0,94,0.00,,,0.01,Wunderground v.1.15,2013-01-12 23:20:00,
2013-01-12 18:25:00,61.5,59.8,30.10,SE,146,0.0,0.0,94,0.00,,,0.01,Wunderground v.1.15,2013-01-12 23:25:00,
2013-01-12 18:30:00,61.3,59.6,30.10,SE,146,0.0,0.0,94,0.00,,,0.01,Wunderground v.1.15,2013-01-12 23:30:00,
2013-01-12 18:35:00,61.1,59.4,30.10,SE,146,0.0,0.0,94,0.00,,,0.01,Wunderground v.1.15,2013-01-12 23:35:00,
2013-01-12 18:40:00,60.9,59.2,30.10,SE,146,0.0,0.0,94,0.00,,,0.01,Wunderground v.1.15,2013-01-12 23:40:00,
2013-01-12 18:45:00,60.7,59.0,30.10,SE,146,0.0,0.0,94,0.00,,,0.01,Wunderground v.1.15,2013-01-12 23:45:00,
2013-01-12 18:50:00,60.4,58.7,30.10,SE,146,0.0,0.0,94,0.00,,,0.01,Wunderground v.1.15,2013-01-12 23:50:00,
2013-01-12 18:55:00,60.2,58.5,30.10,SE,146,0.0,0.0,94,0.00,,,0.01,Wunderground v.1.15,2013-01-12 23:55:00,
2013-01-12 19:00:00,59.9,58.2,30.10,SE,146,0.0,0.0,94,0.00,,,0.01,Wunderground v.1.15,2013-01-13 00:00:00,
2013-01-12 19:05:00,59.7,58.0,30.10,SE,146,0.0,0.0,94,0.00,,,0.01,Wunderground v.1.15,2013-01-13 00:05:00,
2013-01-12 19:10:00,59.7,58.3,30.10,SE,146,0.0,0.0,95,0.00,,,0.01,Wunderground v.1.15,2013-01-13 00:10:00,
2013-01-12 19:15:00,59.6,58.2,30.10,SE,146,0.0,0.0,95,0.00,,,0.01,Wunderground v.1.15,2013-01-13 00:15:00,
2013-01-12 19:20:00,59.5,58.1,30.11,SE,146,0.0,0.0,95,0.00,,,0.01,Wunderground v.1.15,2013-01-13 00:20:00,
2013-01-12 19:25:00,59.8,58.7,30.11,SE,146,0.0,0.0,96,0.00,,,0.01,Wunderground v.1.15,2013-01-13 00:25:00,
2013-01-12 19:30:00,60.0,58.9,30.11,SE,146,0.0,0.0,96,0.00,,,0.01,Wunderground v.1.15,2013-01-13 00:30:00,
2013-01-12 19:35:00,60.1,59.0,30.11,SE,146,0.0,0.0,96,0.00,,,0.01,Wunderground v.1.15,2013-01-13 00:35:00,
2013-01-12 19:40:00,60.4,59.3,30.10,SE,146,0.0,0.0,96,0.00,,,0.01,Wunderground v.1.15,2013-01-13 00:40:00,
2013-01-12 19:45:00,60.7,59.6,30.10,SE,146,0.0,0.0,96,0.00,,,0.01,Wunderground v.1.15,2013-01-13 00:45:00,
2013-01-12 19:50:00,60.7,59.6,30.10,SE,146,0.0,0.0,96,0.00,,,0.01,Wunderground v.1.15,2013-01-13 00:50:00,
2013-01-12 19:55:00,60.6,59.2,30.10,SE,146,0.0,0.0,95,0.00,,,0.01,Wunderground v.1.15,2013-01-13 00:55:00,
2013-01-12 20:00:00,60.5,59.1,30.11,SE,146,0.0,0.0,95,0.00,,,0.01,Wunderground v.1.15,2013-01-13 01:00:00,
2013-01-12 20:05:00,60.4,59.3,30.11,SE,146,0.0,0.0,96,0.00,,,0.01,Wunderground v.1.15,2013-01-13 01:05:00,
2013-01-12 20:10:00,60.6,59.5,30.10,SE,146,0.0,0.0,96,0.00,,,0.01,Wunderground v.1.15,2013-01-13 01:10:00,
2013-01-12 20:15:00,60.6,59.5,30.10,SE,146,0.0,0.0,96,0.00,,,0.01,Wunderground v.1.15,2013-01-13 01:15:00,
2013-01-12 20:20:00,60.6,59.5,30.10,SE,146,0.0,0.0,96,0.00,,,0.01,Wunderground v.1.15,2013-01-13 01:20:00,
2013-01-12 20:25:00,60.6,59.5,30.10,SE,146,0.0,0.0,96,0.00,,,0.01,Wunderground v.1.15,2013-01-13 01:25:00,
2013-01-12 20:30:00,60.5,59.4,30.10,SE,146,0.0,0.0,96,0.00,,,0.01,Wunderground v.1.15,2013-01-13 01:30:00,
2013-01-12 20:40:00,60.2,58.8,30.10,SE,146,0.0,0.0,95,0.00,,,0.01,Wunderground v.1.15,2013-01-13 01:40:00,
2013-01-12 20:45:00,60.1,58.7,30.10,SE,146,0.0,0.0,95,0.00,,,0.01,Wunderground v.1.15,2013-01-13 01:45:00,
2013-01-12 20:50:00,60.0,58.6,30.09,SE,146,0.0,0.0,95,0.00,,,0.01,Wunderground v.1.15,2013-01-13 01:50:00,
2013-01-12 20:55:00,59.9,58.8,30.09,SE,146,0.0,0.0,96,0.00,,,0.01,Wunderground v.1.15,2013-01-13 01:55:00,
2013-01-12 21:00:00,59.7,58.3,30.10,SE,146,0.0,0.0,95,0.00,,,0.01,Wunderground v.1.15,2013-01-13 02:00:00,
2013-01-12 21:05:00,59.4,58.0,30.10,SE,146,0.0,0.0,95,0.00,,,0.01,Wunderground v.1.15,2013-01-13 02:05:00,
2013-01-12 21:10:00,59.1,57.7,30.10,SE,146,0.0,0.0,95,0.00,,,0.01,Wunderground v.1.15,2013-01-13 02:10:00,
2013-01-12 21:15:00,58.9,57.5,30.10,SE,146,0.0,0.0,95,0.00,,,0.01,Wunderground v.1.15,2013-01-13 02:15:00,
2013-01-12 21:20:00,58.6,57.2,30.10,SE,146,0.0,0.0,95,0.00,,,0.01,Wunderground v.1.15,2013-01-13 02:20:00,
2013-01-12 21:25:00,58.4,57.0,30.10,SE,146,0.0,0.0,95,0.00,,,0.01,Wunderground v.1.15,2013-01-13 02:25:00,
2013-01-12 21:30:00,58.3,56.9,30.10,SE,146,0.0,0.0,95,0.00,,,0.01,Wunderground v.1.15,2013-01-13 02:30:00,
2013-01-12 21:35:00,58.1,56.7,30.10,SE,146,0.0,0.0,95,0.00,,,0.01,Wunderground v.1.15,2013-01-13 02:35:00,
2013-01-12 21:40:00,57.9,56.5,30.10,SE,146,0.0,0.0,95,0.00,,,0.01,Wunderground v.1.15,2013-01-13 02:40:00,
2013-01-12 22:00:00,57.9,56.8,30.09,N/A,-737280,0.0,-999.0,96,0.00,,,0.01,Wunderground v.1.15,2013-01-13 03:00:00,
2013-01-12 22:05:00,57.9,56.8,30.09,N/A,-737280,0.0,-999.0,96,0.00,,,0.01,Wunderground v.1.15,2013-01-13 03:05:00,
2013-01-12 22:10:00,57.9,56.8,30.09,N/A,-737280,0.0,-999.0,96,0.00,,,0.01,Wunderground v.1.15,2013-01-13 03:10:00,
2013-01-12 22:15:00,57.2,56.1,30.10,N/A,-737280,0.0,-999.0,96,0.00,,,0.01,Wunderground v.1.15,2013-01-13 03:15:00,
2013-01-12 22:20:00,57.2,56.1,30.10,N/A,-737280,0.0,-999.0,96,0.00,,,0.01,Wunderground v.1.15,2013-01-13 03:20:00,
2013-01-12 22:25:00,57.2,56.1,30.10,N/A,-737280,0.0,-999.0,96,0.00,,,0.01,Wunderground v.1.15,2013-01-13 03:25:00,
2013-01-12 22:30:00,57.2,56.1,30.10,N/A,-737280,0.0,-999.0,96,0.00,,,0.01,Wunderground v.1.15,2013-01-13 03:30:00,
2013-01-12 22:35:00,57.2,56.1,30.10,N/A,-737280,0.0,-999.0,96,0.00,,,0.01,Wunderground v.1.15,2013-01-13 03:35:00,
2013-01-12 22:40:00,57.2,56.1,30.10,N/A,-737280,0.0,-999.0,96,0.00,,,0.01,Wunderground v.1.15,2013-01-13 03:40:00,
2013-01-12 22:45:00,57.3,56.2,30.09,N/A,-737280,0.0,-999.0,96,0.00,,,0.01,Wunderground v.1.15,2013-01-13 03:45:00,
2013-01-12 22:50:00,57.3,56.2,30.09,N/A,-737280,0.0,-999.0,96,0.00,,,0.01,Wunderground v.1.15,2013-01-13 03:50:00,
2013-01-12 22:55:00,57.3,56.2,30.09,N/A,-737280,0.0,-999.0,96,0.00,,,0.01,Wunderground v.1.15,2013-01-13 03:55:00,
2013-01-12 23:00:00,57.3,56.2,30.09,N/A,-737280,0.0,-999.0,96,0.00,,,0.01,Wunderground v.1.15,2013-01-13 04:00:00,
2013-01-12 23:05:00,57.3,56.2,30.09,N/A,-737280,0.0,-999.0,96,0.00,,,0.01,Wunderground v.1.15,2013-01-13 04:05:00,
2013-01-12 23:10:00,57.3,56.2,30.09,N/A,-737280,0.0,-999.0,96,0.00,,,0.01,Wunderground v.1.15,2013-01-13 04:10:00,
2013-01-12 23:15:00,57.7,56.6,30.09,N/A,-737280,0.0,-999.0,96,0.00,,,0.01,Wunderground v.1.15,2013-01-13 04:15:00,
2013-01-12 23:20:00,57.7,56.6,30.09,N/A,-737280,0.0,-999.0,96,0.00,,,0.01,Wunderground v.1.15,2013-01-13 04:20:00,
2013-01-12 23:25:00,57.7,56.6,30.09,N/A,-737280,0.0,-999.0,96,0.00,,,0.01,Wunderground v.1.15,2013-01-13 04:25:00,
2013-01-12 23:30:00,57.7,56.6,30.09,N/A,-737280,0.0,-999.0,96,0.00,,,0.01,Wunderground v.1.15,2013-01-13 04:30:00,
2013-01-12 23:35:00,57.7,56.6,30.09,N/A,-737280,0.0,-999.0,96,0.00,,,0.01,Wunderground v.1.15,2013-01-13 04:35:00,
2013-01-12 23:40:00,57.7,56.6,30.09,N/A,-737280,0.0,-999.0,96,0.00,,,0.01,Wunderground v.1.15,2013-01-13 04:40:00,
2013-01-12 23:45:00,58.6,57.8,30.08,N/A,-737280,0.0,-999.0,97,0.00,,,0.01,Wunderground v.1.15,2013-01-13 04:45:00,
2013-01-12 23:50:00,58.6,57.8,30.08,N/A,-737280,0.0,-999.0,97,0.00,,,0.01,Wunderground v.1.15,2013-01-13 04:50:00,
2013-01-12 23:55:00,58.6,57.8,30.08,N/A,-737280,0.0,-999.0,97,0.00,,,0.01,Wunderground v.1.15,2013-01-13 04:55:00,